Flight Track Log - Related Links

Times and Time Zones

All times are in EDT time to prevent confusion due to time zone crossing. See the N700CT flight status page for this flight to view local times or setup timezone preferences in your user account.


Time Position Orientation Groundspeed Altitude Reporting Facility
EDT Latitude Longitude Course Direction KTS MPH feet Rate Location/Type
Sat 12:11:01 PM 39.9000 -104.7167 266° West 160 184 6,900  Level Denver TRACON
Sat 12:11:17 PM 39.8992 -104.7342 266° West 156 180 7,400 1,948 Climbing Denver Center
Sat 12:12:18 PM 39.9192 -104.7936 294° West 165 190 9,400 1,756 Climbing Denver Center
Sat 12:13:20 PM 39.9203 -104.8536 271° West 170 196 11,000 1,597 Climbing Denver Center
Sat 12:14:22 PM 39.9219 -104.9153 272° West 171 197 12,700 1,790 Climbing Denver Center
Sat 12:15:24 PM 39.9328 -104.9783 283° West 167 192 14,700 1,694 Climbing Denver Center
Sat 12:16:26 PM 39.9397 -105.0378 279° West 167 192 16,200 1,512 Climbing Denver Center
Sat 12:17:27 PM 39.9486 -105.1006 280° West 164 189 17,800 1,366 Climbing Denver Center
Sat 12:18:29 PM 39.9600 -105.1639 283° West 177 204 19,000 1,065 Climbing Denver Center
Sat 12:19:31 PM 39.9661 -105.2289 277° West 181 208 20,000 484 Climbing Denver Center
Sat 12:20:33 PM 39.9806 -105.3158 282° West 229 264 20,000  Level Denver Center
Sat 12:21:35 PM 39.9931 -105.4028 281° West 245 282 20,000  Level Denver Center
Sat 12:22:36 PM 40.0081 -105.4981 282° West 249 287 20,000  Level Denver Center
Sat 12:23:38 PM 40.0244 -105.5872 284° West 252 290 20,000  Level Denver Center
Sat 12:24:40 PM 40.0411 -105.6753 284° West 250 288 20,000  Level Denver Center
Sat 12:25:42 PM 40.0567 -105.7711 282° West 252 290 20,000  Level Denver Center
Sat 12:26:44 PM 40.0711 -105.8511 283° West 245 282 20,000 -195 Level Denver Center
Sat 12:27:45 PM 40.0869 -105.9403 283° West 247 284 19,600 -488 Descending Denver Center
Sat 12:28:47 PM 40.1044 -106.0442 282° West 249 287 19,000 -629 Descending Denver Center
Sat 12:29:49 PM 40.1189 -106.1317 282° West 246 283 18,300 -677 Descending Denver Center
Sat 12:30:51 PM 40.1331 -106.2167 282° West 243 280 17,600 -677 Descending Denver Center
Sat 12:31:53 PM 40.1469 -106.3017 282° West 240 276 16,900 -677 Descending Denver Center
Sat 12:32:55 PM 40.1619 -106.3867 283° West 240 276 16,200 -677 Descending Denver Center
Sat 12:33:57 PM 40.1767 -106.4706 283° West 240 276 15,500 -683 Descending Denver Center
Sat 12:34:58 PM 40.1892 -106.5522 281° West 236 272 14,800 -683 Descending Denver Center
Sat 12:36:00 PM 40.2033 -106.6317 283° West 231 266 14,100 -823 Descending Denver Center
Sat 12:37:02 PM 40.2181 -106.7250 282° West 224 258 13,100 -532 Descending Denver Center
Sat 12:38:04 PM 40.2381 -106.7975 290° West 224 258 13,000 -97 Descending Denver Center
Sat 12:39:06 PM 40.2936 -106.8133 348° North 206 237 12,900 -435 Descending Denver Center
Sat 12:40:08 PM 40.3414 -106.8297 345° North 187 215 12,100 -823 Descending Denver Center
Sat 12:41:10 PM 40.3906 -106.8464 346° North 169 194 11,200 -823 Descending Denver Center
Sat 12:42:12 PM 40.4331 -106.8594 347° North 160 184 10,400 -871 Descending Denver Center
Sat 12:43:14 PM 40.4761 -106.8681 351° North 158 182 9,400 -968 Descending Denver Center
Sat 12:44:16 PM 40.5158 -106.8853 342° North 153 176 8,400 -871 Descending Denver Center
Sat 12:45:18 PM 40.5389 -106.8886 354° North 139 160 7,600 -532 Descending Denver Center
Sat 12:46:20 PM 40.5147 -106.8500 129° Southeast 135 155 7,300 -290 Descending Denver Center

Login

Don't have an account? Register now (free) for customized features, flight alerts, and more!